createdAt,value
2019-03-09T00:00:52.441Z,4.62
2019-03-09T00:05:59.006Z,4.58
2019-03-09T00:11:05.618Z,4.65
2019-03-09T00:16:12.226Z,4.33
2019-03-09T00:21:18.843Z,4.95
2019-03-09T00:26:32.963Z,4.83
2019-03-09T00:31:47.454Z,5.03
2019-03-09T00:36:53.995Z,5.17
2019-03-09T00:42:00.537Z,5.05
2019-03-09T00:47:07.171Z,4.65
2019-03-09T00:52:13.701Z,4.62
2019-03-09T00:57:20.301Z,4.70
2019-03-09T01:02:27.427Z,4.65
2019-03-09T01:07:34.034Z,4.62
2019-03-09T01:12:40.661Z,4.42
2019-03-09T01:17:47.579Z,4.65
2019-03-09T01:22:54.182Z,4.75
2019-03-09T01:28:00.557Z,4.12
2019-03-09T01:33:07.151Z,4.15
2019-03-09T01:38:13.706Z,3.70
2019-03-09T01:43:20.257Z,3.90
2019-03-09T01:48:26.702Z,3.20
2019-03-09T01:53:36.601Z,2.92
2019-03-09T01:58:41.325Z,2.92
2019-03-09T02:03:47.889Z,2.65
2019-03-09T02:08:55.391Z,2.80
2019-03-09T02:14:01.926Z,2.77
2019-03-09T02:19:08.534Z,2.00
2019-03-09T02:24:15.089Z,2.08
2019-03-09T02:29:21.615Z,1.98
2019-03-09T02:34:28.182Z,1.95
2019-03-09T02:39:45.841Z,1.60
2019-03-09T02:44:52.272Z,1.52
2019-03-09T02:49:58.825Z,1.47
2019-03-09T02:55:05.624Z,1.57
2019-03-09T03:00:16.074Z,1.60
2019-03-09T03:05:22.612Z,1.50
2019-03-09T03:10:29.235Z,1.27
2019-03-09T03:15:36.980Z,1.50
2019-03-09T03:20:43.538Z,1.30
2019-03-09T03:25:50.166Z,1.45
2019-03-09T03:30:56.795Z,1.75
2019-03-09T03:36:03.323Z,1.67
2019-03-09T03:41:09.952Z,1.45
2019-03-09T03:46:16.420Z,1.20
2019-03-09T03:51:23.032Z,1.10
2019-03-09T03:56:29.771Z,1.12
2019-03-09T04:01:36.332Z,1.02
2019-03-09T04:06:43.944Z,1.00
2019-03-09T04:11:50.660Z,1.27
2019-03-09T04:16:58.240Z,1.25
2019-03-09T04:22:04.839Z,1.10
2019-03-09T04:27:11.356Z,1.02
2019-03-09T04:32:17.953Z,1.80
2019-03-09T04:37:24.492Z,1.00
2019-03-09T04:42:31.095Z,1.12
2019-03-09T04:47:37.634Z,1.57
2019-03-09T04:52:44.240Z,1.17
2019-03-09T04:57:50.864Z,1.37
2019-03-09T05:02:57.415Z,1.27
2019-03-09T05:08:12.881Z,1.47
2019-03-09T05:13:57.530Z,1.30
2019-03-09T05:19:04.007Z,1.10
2019-03-09T05:24:10.527Z,1.20
2019-03-09T05:29:17.145Z,1.10
2019-03-09T05:34:23.694Z,1.52
2019-03-09T05:39:30.233Z,1.57
2019-03-09T05:44:36.734Z,1.10
2019-03-09T05:49:43.210Z,1.40
2019-03-09T05:54:49.738Z,1.60
2019-03-09T05:59:56.174Z,1.40
2019-03-09T06:05:02.541Z,1.50
2019-03-09T06:10:09.179Z,1.25
2019-03-09T06:15:15.791Z,1.37
2019-03-09T06:20:22.399Z,1.65
2019-03-09T06:25:29.027Z,1.70
2019-03-09T06:30:35.637Z,1.77
2019-03-09T06:35:42.156Z,1.37
2019-03-09T06:40:48.607Z,1.52
2019-03-09T06:45:55.064Z,1.62
2019-03-09T06:51:01.610Z,1.50
2019-03-09T06:56:08.182Z,2.08
2019-03-09T07:01:22.471Z,1.85
2019-03-09T07:06:29.162Z,1.50
2019-03-09T07:11:35.890Z,1.30
2019-03-09T07:16:42.429Z,1.32
2019-03-09T07:21:48.975Z,1.10
2019-03-09T07:26:55.511Z,1.10
2019-03-09T07:32:02.042Z,1.30
2019-03-09T07:37:08.649Z,0.90
2019-03-09T07:42:15.178Z,1.02
2019-03-09T07:47:21.704Z,1.17
2019-03-09T07:52:38.846Z,0.85
2019-03-09T07:57:45.566Z,0.90
2019-03-09T08:02:53.274Z,0.88
2019-03-09T08:07:59.901Z,0.80
2019-03-09T08:13:06.596Z,0.70
2019-03-09T08:18:14.112Z,0.60
2019-03-09T08:23:20.666Z,1.00
2019-03-09T08:28:27.122Z,0.80
2019-03-09T08:33:32.659Z,0.70
2019-03-09T08:38:39.220Z,0.50
2019-03-09T08:43:45.861Z,0.65
2019-03-09T08:48:52.387Z,0.60
2019-03-09T08:53:58.878Z,0.50
2019-03-09T08:59:05.484Z,0.40
2019-03-09T09:04:12.050Z,1.12
2019-03-09T09:09:18.595Z,0.40
2019-03-09T09:14:25.181Z,0.42
2019-03-09T09:19:31.574Z,0.40
2019-03-09T09:24:38.117Z,0.50
2019-03-09T09:29:44.649Z,0.70
2019-03-09T09:34:51.115Z,0.60
2019-03-09T09:39:57.744Z,0.70
2019-03-09T09:45:04.713Z,0.50
2019-03-09T09:50:12.013Z,0.37
2019-03-09T09:55:18.660Z,0.40
2019-03-09T10:00:26.599Z,0.40
2019-03-09T10:05:33.136Z,0.60
2019-03-09T10:10:39.757Z,0.33
2019-03-09T10:15:46.302Z,0.40
2019-03-09T10:20:52.855Z,0.30
2019-03-09T10:25:59.479Z,0.50
2019-03-09T10:31:06.091Z,0.45
2019-03-09T10:36:12.715Z,0.30
2019-03-09T10:41:19.308Z,0.30
2019-03-09T10:46:25.926Z,0.40
2019-03-09T10:51:32.574Z,0.70
2019-03-09T10:56:38.953Z,0.50
2019-03-09T11:01:45.592Z,0.60
2019-03-09T11:06:52.239Z,0.60
2019-03-09T11:11:58.867Z,0.75
2019-03-09T11:17:07.520Z,0.60
2019-03-09T11:22:14.062Z,0.80
2019-03-09T11:27:20.524Z,0.78
2019-03-09T11:32:26.980Z,0.50
2019-03-09T11:37:33.524Z,0.70
2019-03-09T11:42:40.106Z,0.60
2019-03-09T11:47:46.920Z,0.60
2019-03-09T11:52:57.384Z,0.60
2019-03-09T11:58:04.165Z,0.70
2019-03-09T12:03:10.740Z,0.82
2019-03-09T12:08:17.199Z,0.60
2019-03-09T12:13:23.823Z,0.70
2019-03-09T12:18:30.291Z,0.60
2019-03-09T12:23:36.905Z,1.00
2019-03-09T12:28:43.360Z,0.70
2019-03-09T12:33:49.813Z,0.60
2019-03-09T12:38:56.345Z,0.82
2019-03-09T12:44:02.880Z,0.75
2019-03-09T12:49:09.550Z,0.80
2019-03-09T12:54:16.080Z,0.65
2019-03-09T12:59:22.690Z,0.90
2019-03-09T13:04:29.289Z,0.65
2019-03-09T13:09:35.908Z,0.60
2019-03-09T13:14:42.542Z,0.60
2019-03-09T13:19:49.089Z,0.60
2019-03-09T13:24:55.762Z,0.68
2019-03-09T13:30:02.354Z,0.62
2019-03-09T13:35:10.336Z,0.57
2019-03-09T13:40:17.616Z,0.60
2019-03-09T13:45:24.209Z,0.60
2019-03-09T13:50:30.720Z,0.47
2019-03-09T13:55:37.278Z,0.42
2019-03-09T14:00:43.845Z,1.50
2019-03-09T14:05:50.500Z,0.40
2019-03-09T14:10:57.064Z,0.75
2019-03-09T14:16:04.719Z,0.40
2019-03-09T14:21:11.356Z,0.55
2019-03-09T14:26:17.966Z,0.60
2019-03-09T14:31:24.611Z,0.60
2019-03-09T14:36:31.241Z,0.60
2019-03-09T14:41:37.879Z,0.70
2019-03-09T14:46:44.357Z,0.82
2019-03-09T14:51:50.846Z,0.70
2019-03-09T14:56:57.446Z,0.60
2019-03-09T15:02:07.113Z,0.60
2019-03-09T15:07:13.796Z,0.80
2019-03-09T15:12:20.424Z,0.60
2019-03-09T15:17:27.265Z,0.70
2019-03-09T15:22:33.795Z,0.90
2019-03-09T15:27:40.508Z,0.60
2019-03-09T15:32:47.185Z,0.60
2019-03-09T15:37:53.838Z,0.80
2019-03-09T15:43:00.423Z,0.70
2019-03-09T15:48:07.041Z,0.62
2019-03-09T15:53:13.850Z,0.72
2019-03-09T15:58:20.661Z,0.60
2019-03-09T16:03:27.323Z,0.80
2019-03-09T16:08:34.850Z,0.68
2019-03-09T16:13:41.506Z,0.85
2019-03-09T16:18:48.292Z,0.60
2019-03-09T16:23:55.912Z,0.70
2019-03-09T16:29:04.830Z,0.60
2019-03-09T16:34:11.487Z,0.70
2019-03-09T16:39:18.093Z,0.45
2019-03-09T16:44:24.794Z,0.50
2019-03-09T16:49:31.276Z,0.45
2019-03-09T16:54:37.909Z,0.40
2019-03-09T16:59:44.651Z,0.55
2019-03-09T17:04:51.557Z,0.37
2019-03-09T17:09:59.415Z,0.40
2019-03-09T17:15:06.893Z,0.40
2019-03-09T17:20:14.151Z,0.45
2019-03-09T17:25:20.793Z,0.30
2019-03-09T17:30:27.379Z,0.47
2019-03-09T17:35:34.041Z,0.20
2019-03-09T17:40:40.607Z,0.30
2019-03-09T17:45:47.239Z,0.33
2019-03-09T17:50:53.696Z,0.30
2019-03-09T17:56:00.211Z,0.30
2019-03-09T18:01:08.037Z,0.30
2019-03-09T18:06:14.532Z,0.33
2019-03-09T18:11:21.068Z,0.50
2019-03-09T18:16:27.605Z,0.50
2019-03-09T18:21:34.225Z,0.40
2019-03-09T18:26:40.829Z,0.50
2019-03-09T18:31:47.584Z,0.40
2019-03-09T18:36:54.175Z,0.50
2019-03-09T18:42:00.792Z,0.70
2019-03-09T18:47:07.486Z,1.02
2019-03-09T18:52:14.134Z,1.40
2019-03-09T18:57:20.851Z,1.02
2019-03-09T19:02:27.472Z,0.50
2019-03-09T19:07:33.977Z,0.30
2019-03-09T19:12:40.620Z,0.62
2019-03-09T19:17:47.163Z,0.28
2019-03-09T19:22:53.790Z,0.30
2019-03-09T19:28:00.472Z,0.40
2019-03-09T19:33:07.001Z,0.65
2019-03-09T19:38:13.616Z,0.50
2019-03-09T19:43:20.225Z,0.70
2019-03-09T19:48:29.819Z,0.53
2019-03-09T19:53:36.357Z,0.70
2019-03-09T19:58:42.973Z,0.57
2019-03-09T20:03:49.992Z,1.22
2019-03-09T20:08:56.539Z,0.85
2019-03-09T20:14:03.021Z,0.90
2019-03-09T20:19:29.764Z,0.88
2019-03-09T20:24:36.243Z,1.10
2019-03-09T20:29:42.796Z,0.90
2019-03-09T20:34:49.342Z,0.82
2019-03-09T20:39:55.898Z,0.90
2019-03-09T20:45:02.445Z,0.88
2019-03-09T20:50:11.797Z,0.72
2019-03-09T20:55:18.410Z,0.60
2019-03-09T21:00:25.060Z,1.00
2019-03-09T21:05:31.596Z,0.70
2019-03-09T21:10:38.239Z,0.90
2019-03-09T21:15:44.833Z,0.80
2019-03-09T21:20:51.277Z,1.32
2019-03-09T21:25:57.920Z,0.95
2019-03-09T21:31:04.466Z,0.90
2019-03-09T21:36:11.018Z,0.80
2019-03-09T21:41:17.543Z,1.00
2019-03-09T21:46:24.070Z,1.00
2019-03-09T21:51:30.540Z,1.12
2019-03-09T21:56:37.160Z,1.17
2019-03-09T22:01:43.696Z,1.17
2019-03-09T22:06:50.271Z,0.93
2019-03-09T22:11:56.885Z,0.78
2019-03-09T22:17:03.420Z,1.22
2019-03-09T22:22:10.035Z,0.82
2019-03-09T22:27:17.377Z,0.80
2019-03-09T22:32:23.998Z,1.20
2019-03-09T22:37:30.541Z,1.15
2019-03-09T22:42:37.022Z,0.90
2019-03-09T22:47:44.719Z,0.93
2019-03-09T22:52:51.827Z,0.75
2019-03-09T22:57:58.449Z,0.93
2019-03-09T23:03:05.602Z,0.93
2019-03-09T23:08:12.153Z,0.72
2019-03-09T23:13:18.917Z,1.20
2019-03-09T23:18:25.532Z,1.00
2019-03-09T23:23:32.005Z,1.00
2019-03-09T23:28:47.909Z,1.02
2019-03-09T23:33:54.514Z,0.90
2019-03-09T23:39:01.126Z,1.07
2019-03-09T23:44:09.454Z,1.07
2019-03-09T23:49:16.085Z,1.00
2019-03-09T23:54:22.724Z,0.90
2019-03-09T23:59:29.324Z,0.70
